createdAt,value
2019-05-30T00:01:51.751Z,3.67
2019-05-30T00:04:18.603Z,4.03
2019-05-30T00:06:46.139Z,3.90
2019-05-30T00:09:13.281Z,4.07
2019-05-30T00:11:40.311Z,4.00
2019-05-30T00:14:07.034Z,7.10
2019-05-30T00:16:33.855Z,3.77
2019-05-30T00:19:00.931Z,3.70
2019-05-30T00:21:27.755Z,4.47
2019-05-30T00:23:55.742Z,3.60
2019-05-30T00:26:22.731Z,3.80
2019-05-30T00:28:49.450Z,3.93
2019-05-30T00:31:16.161Z,3.83
2019-05-30T00:33:42.874Z,3.40
2019-05-30T00:36:11.511Z,4.10
2019-05-30T00:38:38.581Z,3.67
2019-05-30T00:41:06.232Z,4.07
2019-05-30T00:43:33.029Z,3.90
2019-05-30T00:46:00.043Z,3.67
2019-05-30T00:48:26.859Z,3.30
2019-05-30T00:50:53.550Z,3.63
2019-05-30T00:53:20.265Z,3.70
2019-05-30T00:55:46.977Z,3.53
2019-05-30T00:58:13.761Z,3.70
2019-05-30T01:00:43.859Z,3.63
2019-05-30T01:03:09.403Z,4.03
2019-05-30T01:05:36.152Z,3.33
2019-05-30T01:08:03.314Z,3.10
2019-05-30T01:10:30.662Z,3.60
2019-05-30T01:12:57.381Z,3.70
2019-05-30T01:15:24.075Z,3.50
2019-05-30T01:17:51.166Z,4.70
2019-05-30T01:20:17.861Z,3.37
2019-05-30T01:22:44.600Z,3.33
2019-05-30T01:25:11.345Z,3.50
2019-05-30T01:27:38.100Z,3.50
2019-05-30T01:30:05.767Z,5.00
2019-05-30T01:32:32.817Z,3.60
2019-05-30T01:34:59.810Z,3.40
2019-05-30T01:37:26.889Z,3.20
2019-05-30T01:39:54.037Z,3.20
2019-05-30T01:42:21.106Z,3.03
2019-05-30T01:44:48.263Z,3.27
2019-05-30T01:47:15.303Z,3.17
2019-05-30T01:49:42.035Z,3.07
2019-05-30T01:52:08.895Z,3.00
2019-05-30T01:54:35.622Z,3.13
2019-05-30T01:57:02.589Z,3.30
2019-05-30T01:59:30.487Z,3.20
2019-05-30T02:01:57.236Z,3.40
2019-05-30T02:04:24.164Z,3.07
2019-05-30T02:06:50.881Z,2.70
2019-05-30T02:09:17.754Z,2.97
2019-05-30T02:11:44.471Z,2.97
2019-05-30T02:14:11.191Z,2.83
2019-05-30T02:16:38.208Z,3.03
2019-05-30T02:19:05.815Z,2.57
2019-05-30T02:21:32.946Z,2.70
2019-05-30T02:24:00.003Z,3.20
2019-05-30T02:26:26.673Z,3.00
2019-05-30T02:28:53.679Z,2.80
2019-05-30T02:31:37.862Z,2.60
2019-05-30T02:33:48.999Z,3.00
2019-05-30T02:36:15.694Z,2.97
2019-05-30T02:38:42.397Z,2.77
2019-05-30T02:41:10.056Z,3.10
2019-05-30T02:43:37.878Z,2.80
2019-05-30T02:46:05.911Z,2.93
2019-05-30T02:48:33.198Z,3.17
2019-05-30T02:51:00.997Z,3.07
2019-05-30T02:53:27.851Z,3.00
2019-05-30T02:55:54.612Z,2.97
2019-05-30T02:58:22.788Z,3.00
2019-05-30T03:00:49.895Z,2.80
2019-05-30T03:03:16.616Z,2.63
2019-05-30T03:05:43.309Z,3.20
2019-05-30T03:08:13.896Z,2.90
2019-05-30T03:10:38.735Z,2.70
2019-05-30T03:13:06.406Z,2.80
2019-05-30T03:15:34.104Z,2.93
2019-05-30T03:18:02.264Z,2.83
2019-05-30T03:20:29.780Z,3.00
2019-05-30T03:22:56.593Z,2.70
2019-05-30T03:25:23.316Z,2.90
2019-05-30T03:27:50.043Z,2.90
2019-05-30T03:30:26.810Z,2.57
2019-05-30T03:33:05.543Z,3.00
2019-05-30T03:35:26.856Z,2.93
2019-05-30T03:37:42.788Z,2.80
2019-05-30T03:40:09.548Z,3.00
2019-05-30T03:42:36.233Z,3.10
2019-05-30T03:45:04.225Z,3.27
2019-05-30T03:47:32.558Z,3.83
2019-05-30T03:49:59.269Z,3.67
2019-05-30T03:52:25.988Z,3.20
2019-05-30T03:54:53.065Z,3.70
2019-05-30T03:57:26.614Z,3.57
2019-05-30T03:59:57.391Z,3.50
2019-05-30T04:02:57.138Z,3.07
2019-05-30T04:05:23.142Z,2.93
2019-05-30T04:07:52.001Z,2.97
2019-05-30T04:10:19.924Z,3.10
2019-05-30T04:13:19.317Z,2.90
2019-05-30T04:15:46.503Z,2.73
2019-05-30T04:18:14.646Z,2.30
2019-05-30T04:20:41.828Z,2.60
2019-05-30T04:23:10.657Z,3.47
2019-05-30T04:25:37.181Z,2.20
2019-05-30T04:28:05.479Z,2.40
2019-05-30T04:30:32.290Z,2.70
2019-05-30T04:33:16.041Z,2.37
2019-05-30T04:35:27.910Z,2.67
2019-05-30T04:37:54.623Z,2.73
2019-05-30T04:40:21.755Z,2.67
2019-05-30T04:42:48.441Z,2.90
2019-05-30T04:45:16.003Z,2.80
2019-05-30T04:47:43.282Z,2.67
2019-05-30T04:50:12.207Z,2.60
2019-05-30T04:52:39.026Z,2.63
2019-05-30T04:55:05.731Z,2.70
2019-05-30T04:57:32.760Z,2.80
2019-05-30T04:59:59.573Z,2.50
2019-05-30T05:02:26.280Z,2.70
2019-05-30T05:04:53.289Z,2.50
2019-05-30T05:07:22.357Z,3.43
2019-05-30T05:09:49.442Z,2.87
2019-05-30T05:12:16.219Z,3.20
2019-05-30T05:14:43.129Z,2.73
2019-05-30T05:17:09.821Z,3.07
2019-05-30T05:19:36.566Z,2.93
2019-05-30T05:22:03.267Z,2.80
2019-05-30T05:24:29.976Z,3.20
2019-05-30T05:26:56.707Z,2.90
2019-05-30T05:29:24.194Z,3.20
2019-05-30T05:31:51.106Z,3.40
2019-05-30T05:34:18.576Z,2.93
2019-05-30T05:36:45.448Z,3.23
2019-05-30T05:39:12.154Z,3.20
2019-05-30T05:41:38.858Z,3.30
2019-05-30T05:44:05.587Z,3.53
2019-05-30T05:46:32.289Z,3.70
2019-05-30T05:49:01.246Z,3.80
2019-05-30T05:51:29.048Z,3.60
2019-05-30T05:53:55.964Z,3.30
2019-05-30T05:56:22.934Z,3.60
2019-05-30T05:58:49.795Z,3.43
2019-05-30T06:01:17.315Z,4.40
2019-05-30T06:03:46.115Z,3.83
2019-05-30T06:06:12.787Z,3.73
2019-05-30T06:08:39.840Z,4.43
2019-05-30T06:11:06.859Z,4.50
2019-05-30T06:13:33.571Z,4.00
2019-05-30T06:16:00.417Z,4.00
2019-05-30T06:18:28.407Z,4.60
2019-05-30T06:20:55.478Z,4.40
2019-05-30T06:23:23.401Z,4.70
2019-05-30T06:25:50.495Z,4.27
2019-05-30T06:28:17.966Z,4.37
2019-05-30T06:30:44.917Z,4.30
2019-05-30T06:33:11.606Z,4.60
2019-05-30T06:35:38.373Z,4.33
2019-05-30T06:38:05.086Z,4.77
2019-05-30T06:40:32.275Z,4.53
2019-05-30T06:42:59.118Z,4.40
2019-05-30T06:45:26.841Z,5.10
2019-05-30T06:47:53.662Z,4.37
2019-05-30T06:50:20.674Z,4.67
2019-05-30T06:52:47.718Z,4.50
2019-05-30T06:55:14.451Z,5.03
2019-05-30T06:57:41.194Z,4.50
2019-05-30T07:00:11.006Z,4.57
2019-05-30T07:02:37.908Z,4.60
2019-05-30T07:05:05.251Z,4.23
2019-05-30T07:07:33.371Z,4.20
2019-05-30T07:10:00.406Z,4.53
2019-05-30T07:12:27.538Z,3.63
2019-05-30T07:14:54.560Z,2.70
2019-05-30T07:17:21.662Z,2.93
2019-05-30T07:19:48.406Z,3.13
2019-05-30T07:22:15.164Z,3.03
2019-05-30T07:24:41.916Z,3.17
2019-05-30T07:27:08.666Z,3.00
2019-05-30T07:29:35.431Z,2.67
2019-05-30T07:32:02.268Z,2.90
2019-05-30T07:34:30.161Z,2.83
2019-05-30T07:36:57.324Z,3.17
2019-05-30T07:39:27.117Z,3.10
2019-05-30T07:42:05.749Z,3.27
2019-05-30T07:44:21.384Z,2.70
2019-05-30T07:46:48.156Z,3.00
2019-05-30T07:49:14.888Z,3.10
2019-05-30T07:51:41.625Z,3.23
2019-05-30T07:54:08.316Z,2.67
2019-05-30T07:56:35.193Z,2.63
2019-05-30T07:59:02.113Z,2.60
2019-05-30T08:01:28.882Z,2.60
2019-05-30T08:03:55.626Z,2.57
2019-05-30T08:06:22.365Z,2.20
2019-05-30T08:08:49.336Z,2.50
2019-05-30T08:11:16.084Z,2.43
2019-05-30T08:13:42.942Z,2.20
2019-05-30T08:16:09.640Z,2.07
2019-05-30T08:18:37.838Z,3.73
2019-05-30T08:21:04.784Z,2.50
2019-05-30T08:23:32.090Z,2.20
2019-05-30T08:25:58.863Z,2.40
2019-05-30T08:28:25.674Z,2.43
2019-05-30T08:30:52.380Z,2.40
2019-05-30T08:33:21.542Z,2.17
2019-05-30T08:35:49.894Z,2.40
2019-05-30T08:38:16.400Z,1.80
2019-05-30T08:40:43.140Z,2.40
2019-05-30T08:43:10.519Z,2.37
2019-05-30T08:45:37.975Z,2.37
2019-05-30T08:48:05.222Z,2.17
2019-05-30T08:50:32.358Z,2.07
2019-05-30T08:52:59.311Z,2.40
2019-05-30T08:55:26.382Z,2.30
2019-05-30T08:57:55.253Z,2.03
2019-05-30T09:00:22.131Z,2.37
2019-05-30T09:02:48.974Z,1.87
2019-05-30T09:05:15.738Z,2.03
2019-05-30T09:07:42.894Z,1.80
2019-05-30T09:10:10.281Z,1.90
2019-05-30T09:12:38.598Z,2.20
2019-05-30T09:15:07.128Z,1.80
2019-05-30T09:17:33.829Z,2.00
2019-05-30T09:20:00.614Z,1.90
2019-05-30T09:22:27.446Z,2.10
2019-05-30T09:24:54.316Z,2.00
2019-05-30T09:27:21.333Z,2.20
2019-05-30T09:29:48.364Z,1.90
2019-05-30T09:32:15.194Z,1.80
2019-05-30T09:34:43.240Z,1.70
2019-05-30T09:37:10.197Z,2.00
2019-05-30T09:39:36.938Z,2.20
2019-05-30T09:42:03.725Z,1.90
2019-05-30T09:44:30.485Z,1.90
2019-05-30T09:46:57.233Z,3.03
2019-05-30T09:49:24.102Z,2.03
2019-05-30T09:51:51.158Z,1.90
2019-05-30T09:54:18.052Z,2.17
2019-05-30T09:56:45.012Z,2.20
2019-05-30T09:59:11.875Z,2.40
2019-05-30T10:01:38.612Z,2.10
2019-05-30T10:04:05.304Z,1.70
2019-05-30T10:06:32.006Z,2.00
2019-05-30T10:08:58.782Z,1.83
2019-05-30T10:11:25.622Z,1.80
2019-05-30T10:13:52.858Z,1.93
2019-05-30T10:16:20.395Z,1.90
2019-05-30T10:18:47.707Z,1.70
2019-05-30T10:21:15.783Z,1.40
2019-05-30T10:23:42.733Z,1.40
2019-05-30T10:26:09.496Z,1.60
2019-05-30T10:28:36.581Z,1.90
2019-05-30T10:31:03.312Z,1.63
2019-05-30T10:33:30.155Z,1.63
2019-05-30T10:35:57.072Z,1.40
2019-05-30T10:38:24.182Z,1.50
2019-05-30T10:40:52.182Z,2.10
2019-05-30T10:43:19.164Z,1.50
2019-05-30T10:45:47.515Z,1.80
2019-05-30T10:48:14.648Z,1.60
2019-05-30T10:50:41.497Z,1.80
2019-05-30T10:53:08.308Z,1.80
2019-05-30T10:55:35.044Z,1.60
2019-05-30T10:58:04.383Z,1.63
2019-05-30T11:00:55.717Z,1.50
2019-05-30T11:03:24.280Z,1.47
2019-05-30T11:06:17.832Z,1.30
2019-05-30T11:08:44.934Z,1.80
2019-05-30T11:11:12.845Z,1.30
2019-05-30T11:13:39.609Z,1.40
2019-05-30T11:16:06.394Z,1.30
2019-05-30T11:18:33.123Z,1.23
2019-05-30T11:21:02.214Z,1.40
2019-05-30T11:23:29.052Z,1.50
2019-05-30T11:25:56.715Z,1.63
2019-05-30T11:28:23.557Z,1.37
2019-05-30T11:30:50.643Z,1.60
2019-05-30T11:33:17.526Z,1.60
2019-05-30T11:35:44.287Z,1.57
2019-05-30T11:38:10.971Z,1.60
2019-05-30T11:40:38.521Z,1.40
2019-05-30T11:43:05.249Z,1.47
2019-05-30T11:45:31.971Z,1.40
2019-05-30T11:47:59.911Z,1.70
2019-05-30T11:50:27.052Z,1.70
2019-05-30T11:52:54.311Z,1.30
2019-05-30T11:55:22.054Z,1.40
2019-05-30T11:57:49.961Z,1.93
2019-05-30T12:00:18.077Z,1.90
2019-05-30T12:02:44.788Z,1.77
2019-05-30T12:05:11.515Z,1.60
2019-05-30T12:07:38.259Z,1.80
2019-05-30T12:10:05.063Z,1.37
2019-05-30T12:12:31.803Z,1.70
2019-05-30T12:14:59.442Z,1.83
2019-05-30T12:17:26.485Z,1.60
2019-05-30T12:19:53.474Z,1.80
2019-05-30T12:22:20.404Z,1.60
2019-05-30T12:24:47.253Z,1.73
2019-05-30T12:27:14.002Z,1.57
2019-05-30T12:29:40.735Z,1.40
2019-05-30T12:32:07.575Z,1.90
2019-05-30T12:34:34.401Z,1.83
2019-05-30T12:37:01.084Z,1.70
2019-05-30T12:39:28.168Z,1.40
2019-05-30T12:41:55.004Z,1.50
2019-05-30T12:44:21.696Z,1.70
2019-05-30T12:46:48.413Z,2.03
2019-05-30T12:49:15.244Z,1.60
2019-05-30T12:51:42.197Z,2.30
2019-05-30T12:54:09.347Z,1.80
2019-05-30T12:56:36.064Z,1.83
2019-05-30T12:59:03.156Z,1.47
2019-05-30T13:01:29.946Z,1.83
2019-05-30T13:03:57.046Z,1.67
2019-05-30T13:06:24.089Z,1.77
2019-05-30T13:08:50.928Z,1.70
2019-05-30T13:11:17.622Z,1.70
2019-05-30T13:13:44.341Z,1.60
2019-05-30T13:16:11.428Z,1.73
2019-05-30T13:18:38.472Z,1.90
2019-05-30T13:21:06.305Z,2.27
2019-05-30T13:23:33.061Z,2.00
2019-05-30T13:25:59.795Z,1.60
2019-05-30T13:28:26.628Z,1.60
2019-05-30T13:30:53.443Z,1.80
2019-05-30T13:33:20.295Z,1.60
2019-05-30T13:35:47.135Z,1.70
2019-05-30T13:38:25.670Z,1.50
2019-05-30T13:40:43.088Z,1.90
2019-05-30T13:43:09.807Z,1.60
2019-05-30T13:45:37.756Z,1.63
2019-05-30T13:48:04.491Z,1.67
2019-05-30T13:50:31.192Z,2.00
2019-05-30T13:52:58.914Z,2.53
2019-05-30T13:55:28.149Z,3.07
2019-05-30T13:57:54.481Z,1.70
2019-05-30T14:00:21.243Z,1.60
2019-05-30T14:02:48.298Z,1.90
2019-05-30T14:05:15.138Z,1.60
2019-05-30T14:07:41.879Z,2.03
2019-05-30T14:10:08.842Z,1.70
2019-05-30T14:12:35.786Z,1.87
2019-05-30T14:15:07.359Z,1.70
2019-05-30T14:17:33.437Z,1.70
2019-05-30T14:20:00.803Z,1.70
2019-05-30T14:22:28.030Z,1.53
2019-05-30T14:24:54.983Z,2.10
2019-05-30T14:27:23.862Z,1.40
2019-05-30T14:29:50.620Z,1.63
2019-05-30T14:32:17.649Z,1.70
2019-05-30T14:34:44.340Z,1.70
2019-05-30T14:37:11.050Z,2.23
2019-05-30T14:39:37.824Z,2.03
2019-05-30T14:42:05.012Z,1.73
2019-05-30T14:44:31.887Z,1.80
2019-05-30T14:46:58.949Z,1.80
2019-05-30T14:49:25.685Z,1.80
2019-05-30T14:51:52.531Z,1.80
2019-05-30T14:54:19.238Z,1.90
2019-05-30T14:56:45.992Z,2.00
2019-05-30T14:59:13.178Z,2.20
2019-05-30T15:01:40.272Z,1.50
2019-05-30T15:04:07.133Z,1.90
2019-05-30T15:06:34.058Z,2.10
2019-05-30T15:09:15.289Z,2.20
2019-05-30T15:11:29.742Z,2.10
2019-05-30T15:13:56.467Z,1.97
2019-05-30T15:16:23.211Z,2.13
2019-05-30T15:18:49.928Z,2.00
2019-05-30T15:21:16.697Z,1.97
2019-05-30T15:23:43.383Z,2.00
2019-05-30T15:26:10.104Z,2.10
2019-05-30T15:28:36.851Z,1.90
2019-05-30T15:31:03.602Z,2.20
2019-05-30T15:33:30.706Z,1.80
2019-05-30T15:35:57.409Z,2.50
2019-05-30T15:38:24.168Z,1.80
2019-05-30T15:40:50.898Z,1.83
2019-05-30T15:43:17.686Z,2.00
2019-05-30T15:45:44.323Z,2.60
2019-05-30T15:48:12.287Z,1.60
2019-05-30T15:50:39.156Z,2.07
2019-05-30T15:53:06.244Z,1.80
2019-05-30T15:55:33.635Z,1.90
2019-05-30T15:58:00.626Z,1.93
2019-05-30T16:00:27.644Z,1.63
2019-05-30T16:02:54.514Z,1.90
2019-05-30T16:05:21.560Z,1.77
2019-05-30T16:07:48.390Z,2.33
2019-05-30T16:10:16.853Z,2.00
2019-05-30T16:12:43.854Z,2.60
2019-05-30T16:15:11.646Z,1.70
2019-05-30T16:17:39.077Z,2.00
2019-05-30T16:20:05.816Z,2.20
2019-05-30T16:22:32.563Z,1.77
2019-05-30T16:24:59.256Z,2.10
2019-05-30T16:27:26.137Z,2.27
2019-05-30T16:29:52.892Z,1.93
2019-05-30T16:32:20.299Z,2.00
2019-05-30T16:34:47.250Z,2.20
2019-05-30T16:37:14.225Z,1.63
2019-05-30T16:39:41.039Z,1.90
2019-05-30T16:42:07.772Z,1.50
2019-05-30T16:44:34.512Z,1.70
2019-05-30T16:47:01.220Z,2.17
2019-05-30T16:49:27.954Z,2.10
2019-05-30T16:51:54.703Z,2.53
2019-05-30T16:54:21.597Z,2.67
2019-05-30T16:56:48.288Z,2.40
2019-05-30T16:59:15.123Z,2.30
2019-05-30T17:01:42.126Z,2.30
2019-05-30T17:04:09.007Z,2.70
2019-05-30T17:06:35.767Z,2.77
2019-05-30T17:09:04.368Z,2.10
2019-05-30T17:11:31.089Z,1.80
2019-05-30T17:13:58.273Z,2.37
2019-05-30T17:16:26.284Z,2.00
2019-05-30T17:18:53.133Z,1.43
2019-05-30T17:21:22.622Z,1.60
2019-05-30T17:23:49.774Z,1.47
2019-05-30T17:26:17.032Z,2.00
2019-05-30T17:28:44.019Z,1.70
2019-05-30T17:31:11.079Z,1.80
2019-05-30T17:33:37.819Z,1.90
2019-05-30T17:36:04.536Z,2.03
2019-05-30T17:38:31.542Z,1.80
2019-05-30T17:40:58.300Z,1.90
2019-05-30T17:43:25.081Z,2.13
2019-05-30T17:45:53.705Z,2.13
2019-05-30T17:48:21.478Z,1.67
2019-05-30T17:50:48.296Z,1.83
2019-05-30T17:53:15.409Z,1.97
2019-05-30T17:55:42.095Z,2.40
2019-05-30T17:58:10.343Z,2.17
2019-05-30T18:00:37.274Z,2.10
2019-05-30T18:03:03.984Z,2.00
2019-05-30T18:05:31.018Z,1.90
2019-05-30T18:07:58.164Z,1.90
2019-05-30T18:10:24.985Z,1.90
2019-05-30T18:12:51.942Z,1.67
2019-05-30T18:15:18.676Z,1.80
2019-05-30T18:17:45.402Z,1.93
2019-05-30T18:20:14.349Z,1.80
2019-05-30T18:22:41.053Z,1.67
2019-05-30T18:25:08.412Z,1.70
2019-05-30T18:27:35.178Z,1.93
2019-05-30T18:30:02.652Z,2.00
2019-05-30T18:32:30.303Z,2.20
2019-05-30T18:34:57.668Z,2.10
2019-05-30T18:37:24.426Z,2.33
2019-05-30T18:39:51.269Z,1.50
2019-05-30T18:42:18.062Z,2.10
2019-05-30T18:44:44.820Z,2.10
2019-05-30T18:47:11.587Z,1.80
2019-05-30T18:49:38.635Z,1.73
2019-05-30T18:52:05.448Z,1.70
2019-05-30T18:54:32.920Z,2.00
2019-05-30T18:56:59.684Z,2.10
2019-05-30T18:59:26.899Z,2.50
2019-05-30T19:01:53.732Z,2.40
2019-05-30T19:04:22.864Z,2.47
2019-05-30T19:06:49.121Z,2.40
2019-05-30T19:09:15.851Z,2.17
2019-05-30T19:12:02.320Z,2.10
2019-05-30T19:14:31.275Z,2.30
2019-05-30T19:16:57.779Z,2.67
2019-05-30T19:19:25.899Z,2.30
2019-05-30T19:21:53.233Z,2.10
2019-05-30T19:24:19.997Z,2.13
2019-05-30T19:26:46.673Z,1.97
2019-05-30T19:29:13.856Z,2.43
2019-05-30T19:31:41.323Z,2.50
2019-05-30T19:34:08.098Z,2.03
2019-05-30T19:36:35.198Z,2.07
2019-05-30T19:39:02.216Z,2.37
2019-05-30T19:41:46.947Z,2.47
2019-05-30T19:43:57.677Z,2.10
2019-05-30T19:46:24.402Z,2.27
2019-05-30T19:48:51.228Z,2.50
2019-05-30T19:51:20.882Z,2.17
2019-05-30T19:53:46.659Z,2.20
2019-05-30T19:56:13.515Z,2.07
2019-05-30T19:58:40.269Z,2.13
2019-05-30T20:01:07.323Z,2.03
2019-05-30T20:03:42.699Z,2.00
2019-05-30T20:06:03.150Z,2.33
2019-05-30T20:08:44.751Z,2.20
2019-05-30T20:10:58.551Z,2.40
2019-05-30T20:13:25.272Z,2.90
2019-05-30T20:15:51.984Z,2.30
2019-05-30T20:18:18.695Z,2.23
2019-05-30T20:20:56.434Z,3.80
2019-05-30T20:23:14.633Z,2.40
2019-05-30T20:25:44.375Z,2.13
2019-05-30T20:28:09.962Z,2.30
2019-05-30T20:30:37.163Z,2.10
2019-05-30T20:33:04.489Z,1.90
2019-05-30T20:35:34.248Z,2.20
2019-05-30T20:38:01.628Z,2.00
2019-05-30T20:40:28.460Z,2.20
2019-05-30T20:42:55.165Z,2.23
2019-05-30T20:45:21.993Z,2.20
2019-05-30T20:47:48.750Z,2.60
2019-05-30T20:50:16.275Z,2.40
2019-05-30T20:52:45.410Z,2.77
2019-05-30T20:55:11.996Z,2.70
2019-05-30T20:57:38.709Z,2.90
2019-05-30T21:00:06.268Z,3.43
2019-05-30T21:02:34.546Z,2.80
2019-05-30T21:05:04.302Z,2.83
2019-05-30T21:07:31.163Z,3.10
2019-05-30T21:09:57.882Z,3.50
2019-05-30T21:12:37.085Z,3.20
2019-05-30T21:14:53.825Z,2.77
2019-05-30T21:17:20.641Z,2.80
2019-05-30T21:19:47.375Z,2.60
2019-05-30T21:22:14.065Z,2.80
2019-05-30T21:24:40.837Z,3.00
2019-05-30T21:27:07.571Z,2.50
2019-05-30T21:29:34.394Z,3.20
2019-05-30T21:32:01.123Z,2.50
2019-05-30T21:34:28.003Z,2.43
2019-05-30T21:36:55.192Z,2.90
2019-05-30T21:39:25.451Z,2.80
2019-05-30T21:41:52.291Z,2.37
2019-05-30T21:44:19.306Z,2.47
2019-05-30T21:46:46.851Z,2.40
2019-05-30T21:49:13.654Z,2.43
2019-05-30T21:51:41.269Z,2.20
2019-05-30T21:54:08.031Z,2.10
2019-05-30T21:56:35.048Z,2.20
2019-05-30T21:59:02.069Z,2.67
2019-05-30T22:01:33.156Z,2.33
2019-05-30T22:04:00.287Z,2.30
2019-05-30T22:06:27.038Z,2.10
2019-05-30T22:08:53.765Z,2.33
2019-05-30T22:11:20.809Z,2.50
2019-05-30T22:13:47.731Z,2.60
2019-05-30T22:16:14.563Z,2.80
2019-05-30T22:18:41.898Z,2.40
2019-05-30T22:21:08.831Z,2.53
2019-05-30T22:23:35.582Z,2.13
2019-05-30T22:26:02.355Z,3.00
2019-05-30T22:28:29.085Z,2.87
2019-05-30T22:30:55.830Z,2.67
2019-05-30T22:33:22.885Z,2.67
2019-05-30T22:35:50.986Z,2.40
2019-05-30T22:38:18.027Z,2.53
2019-05-30T22:40:45.823Z,2.77
2019-05-30T22:43:24.939Z,2.37
2019-05-30T22:45:41.425Z,2.60
2019-05-30T22:48:08.159Z,2.40
2019-05-30T22:50:34.925Z,2.47
2019-05-30T22:53:01.673Z,2.40
2019-05-30T22:55:28.538Z,2.37
2019-05-30T22:57:55.324Z,2.30
2019-05-30T23:00:22.035Z,2.20
2019-05-30T23:02:49.846Z,2.40
2019-05-30T23:05:17.109Z,2.90
2019-05-30T23:07:45.250Z,2.40
2019-05-30T23:10:12.679Z,2.60
2019-05-30T23:12:39.606Z,2.57
2019-05-30T23:15:06.369Z,2.67
2019-05-30T23:17:33.482Z,2.63
2019-05-30T23:20:00.299Z,2.50
2019-05-30T23:22:27.012Z,2.43
2019-05-30T23:24:54.002Z,2.40
2019-05-30T23:27:21.100Z,2.10
2019-05-30T23:29:47.807Z,2.23
2019-05-30T23:32:14.632Z,2.50
2019-05-30T23:34:41.462Z,2.37
2019-05-30T23:37:08.502Z,2.00
2019-05-30T23:39:35.223Z,2.30
2019-05-30T23:42:02.459Z,2.30
2019-05-30T23:44:29.319Z,2.20
2019-05-30T23:46:56.202Z,2.33
2019-05-30T23:49:24.243Z,2.60
2019-05-30T23:51:51.946Z,2.30
2019-05-30T23:54:19.025Z,2.57
2019-05-30T23:56:46.098Z,2.10
2019-05-30T23:59:12.844Z,2.17
